MOL Brightness — VRNL9 — position and weather

sailwx.info

Track history (hours):
 
Tides and Currents Weather Stations Pressure Air Temp Water Temp Dewpoint Dewpoint Depression Visibility Wind Speed Wind Dir Waves Ship Positions

MOL Brightness

Last reported at 2018-Jan-19 23:50 UTC. Time now 2018-Jan-21 22:43 UTC.
Position N 23°57' E 118°18'.

Length 337 m; draft 11 m.

Type: Ship (hazmat cat A). MMSI: 477518600.

Date/timePositionNaut miles runAvg speedWind from/ knotsBaromVisibWave heightAir tempDewpointWater temp
2018-Jan-19 23:50N 23°57' E 118°18'512.4
2018-Jan-19 23:28N 24°01' E 118°20'612.4
2018-Jan-19 23:00N 24°07' E 118°20'611.5
2018-Jan-19 22:30N 24°12' E 118°18'612.4
2018-Jan-19 22:00N 24°17' E 118°13'612.3
2018-Jan-19 21:30N 24°21' E 118°09'5 9.9
2018-Jan-19 21:00N 24°25' E 118°05'5 8.8
2018-Jan-19 20:30N 24°27' E 118°00'0 0.5
2018-Jan-19 19:59N 24°27' E 118°00'0 0.0
2018-Jan-19 19:29N 24°27' E 118°00'0 0.0
2018-Jan-19 18:59N 24°27' E 118°00'0 0.0
2018-Jan-19 18:29N 24°27' E 118°00'0 0.0
2018-Jan-19 17:38N 24°27' E 118°00'0 0.0
2018-Jan-19 17:08N 24°27' E 118°00'0 0.0
2018-Jan-19 16:56N 24°27' E 118°00'0 0.0
2018-Jan-19 16:26N 24°27' E 118°00'0 0.0
2018-Jan-19 15:59N 24°27' E 118°00'0 0.0
2018-Jan-19 15:20N 24°27' E 118°00'0 0.0
2018-Jan-19 14:50N 24°27' E 118°00'0 0.0
2018-Jan-19 14:29N 24°27' E 118°00'0 0.0
2018-Jan-19 13:59N 24°27' E 118°00'0 0.0
2018-Jan-19 13:29N 24°27' E 118°00'0 0.0
2018-Jan-19 12:59N 24°27' E 118°00'0 0.0
2018-Jan-19 12:26N 24°27' E 118°00'0 0.0
2018-Jan-19 11:59N 24°27' E 118°00'0 0.0
2018-Jan-19 11:29N 24°27' E 118°00'0 0.0
2018-Jan-19 10:59N 24°27' E 118°00'0 0.0
2018-Jan-19 10:29N 24°27' E 118°00'0 0.0
2018-Jan-19 09:59N 24°27' E 118°00'0 0.0
2018-Jan-19 09:29N 24°27' E 118°00'0 0.0
2018-Jan-19 08:59N 24°27' E 118°00'0 0.0
2018-Jan-19 08:29N 24°27' E 118°00'0 0.1
2018-Jan-19 07:56N 24°27' E 118°00'0 0.1
2018-Jan-19 07:26N 24°27' E 118°00'0 0.0
2018-Jan-19 06:59N 24°27' E 118°00'0 0.0
2018-Jan-19 06:29N 24°27' E 118°00'0 0.0
2018-Jan-19 05:53N 24°27' E 118°00'0 0.0
2018-Jan-19 05:26N 24°27' E 118°00'0 0.0
2018-Jan-19 04:59N 24°27' E 118°00'0 0.0
2018-Jan-19 04:29N 24°27' E 118°00'0 0.0
2018-Jan-19 03:59N 24°27' E 118°00'0 0.0
2018-Jan-19 03:29N 24°27' E 118°00'0 0.0
2018-Jan-19 02:53N 24°27' E 118°00'0 0.1
2018-Jan-19 02:29N 24°27' E 118°00'0 0.1
2018-Jan-19 01:59N 24°27' E 118°00'0 0.0
2018-Jan-19 01:29N 24°27' E 118°00'0 0.0
2018-Jan-19 00:59N 24°27' E 118°00'0 0.0
2018-Jan-19 00:29N 24°27' E 118°00'0 0.1
2018-Jan-19 00:00N 24°27' E 118°00'1 2.9
2018-Jan-18 23:30N 24°26' E 118°02'510.7
2018-Jan-18 23:00N 24°24' E 118°07'510.6
2018-Jan-18 22:31N 24°20' E 118°11'611.1
2018-Jan-18 22:01N 24°16' E 118°15'611.0
2018-Jan-18 21:30N 24°11' E 118°19'5 9.0
2018-Jan-18 21:00N 24°10' E 118°23'611.4
2018-Jan-18 20:31N 24°09' E 118°29'611.5
2018-Jan-18 20:00N 24°07' E 118°36'611.5
2018-Jan-18 19:30N 24°05' E 118°41'3811.4
2018-Jan-18 16:12N 23°57' E 119°22'212.0
2018-Jan-18 16:00N 23°57' E 119°24'1211.1
2018-Jan-18 14:55N 23°55' E 119°38'2 3.6
2018-Jan-18 14:29N 23°55' E 119°39'2 3.5
2018-Jan-18 14:00N 23°55' E 119°41'2 3.4
2018-Jan-18 13:22N 23°54' E 119°43'1 3.4
2018-Jan-18 13:00N 23°54' E 119°45'1 2.8
2018-Jan-18 12:29N 23°54' E 119°46'1 1.4
2018-Jan-18 12:00N 23°54' E 119°47'2 2.6
2018-Jan-18 11:11N 23°54' E 119°49'1 2.7
2018-Jan-18 10:51N 23°53' E 119°50'1 2.6
2018-Jan-18 10:30N 23°53' E 119°51'1 2.2
2018-Jan-18 10:00N 23°53' E 119°52'2 3.3
2018-Jan-18 09:25N 23°51' E 119°52'410.1
2018-Jan-18 09:00N 23°47' E 119°52'5 9.7
2018-Jan-18 08:31N 23°42' E 119°53'5 9.4
2018-Jan-18 08:00N 23°37' E 119°54'5 9.5
2018-Jan-18 07:31N 23°33' E 119°55'5 9.3
2018-Jan-18 07:00N 23°28' E 119°55'5 9.4
2018-Jan-18 06:30N 23°23' E 119°55'1410.0
2018-Jan-18 05:08N 23°10' E 119°56'310.5
2018-Jan-18 04:49N 23°06' E 119°56'410.7
2018-Jan-18 04:28N 23°03' E 119°55'511.1
2018-Jan-18 04:00N 22°57' E 119°55'611.2
2018-Jan-18 03:30N 22°52' E 119°55'611.4
2018-Jan-18 03:01N 22°46' E 119°57'510.8
2018-Jan-18 02:30N 22°42' E 120°00'611.7
2018-Jan-18 02:00N 22°36' E 120°02'510.4
2018-Jan-18 01:30N 22°33' E 120°06'611.8
2018-Jan-18 01:00N 22°33' E 120°12'7 6.8
2018-Jan-18 00:00N 22°33' E 120°20'0 0.0
2018-Jan-17 23:58N 22°33' E 120°20'  
2018-Jan-13 23:00N 41°42' E 141°24'93419.1 320 / 161027.0 5.4 -0.0 1.0
2018-Jan-11 22:00N 51°24' E 159°06'108843.5 050 / 10999.0 5.4 1.0 5.0
2018-Jan-10 21:00N 53°48' W 171°18'163 7.8 070 / 20977.0 5.4 3.0 3.0
2018-Jan-10 00:00N 54°06' W 175°54'   070 / 12977.0 5.4 5.0 5.0
Track history (hours):
 
Tides and Currents Weather Stations Pressure Air Temp Water Temp Dewpoint Dewpoint Depression Visibility Wind Speed Wind Dir Waves Ship Positions

MOL Brightness

Last reported at 2018-Jan-19 23:50 UTC. Time now 2018-Jan-21 22:43 UTC.
Position N 23°57' E 118°18'.

Length 337 m; draft 11 m.

Type: Ship (hazmat cat A). MMSI: 477518600.

Date/timePositionNaut miles runAvg speedWind from/ knotsBaromVisibWave heightAir tempDewpointWater temp
2018-Jan-19 23:50N 23°57' E 118°18'512.4
2018-Jan-19 23:28N 24°01' E 118°20'612.4
2018-Jan-19 23:00N 24°07' E 118°20'611.5
2018-Jan-19 22:30N 24°12' E 118°18'612.4
2018-Jan-19 22:00N 24°17' E 118°13'612.3
2018-Jan-19 21:30N 24°21' E 118°09'5 9.9
2018-Jan-19 21:00N 24°25' E 118°05'5 8.8
2018-Jan-19 20:30N 24°27' E 118°00'0 0.5
2018-Jan-19 19:59N 24°27' E 118°00'0 0.0
2018-Jan-19 19:29N 24°27' E 118°00'0 0.0
2018-Jan-19 18:59N 24°27' E 118°00'0 0.0
2018-Jan-19 18:29N 24°27' E 118°00'0 0.0
2018-Jan-19 17:38N 24°27' E 118°00'0 0.0
2018-Jan-19 17:08N 24°27' E 118°00'0 0.0
2018-Jan-19 16:56N 24°27' E 118°00'0 0.0
2018-Jan-19 16:26N 24°27' E 118°00'0 0.0
2018-Jan-19 15:59N 24°27' E 118°00'0 0.0
2018-Jan-19 15:20N 24°27' E 118°00'0 0.0
2018-Jan-19 14:50N 24°27' E 118°00'0 0.0
2018-Jan-19 14:29N 24°27' E 118°00'0 0.0
2018-Jan-19 13:59N 24°27' E 118°00'0 0.0
2018-Jan-19 13:29N 24°27' E 118°00'0 0.0
2018-Jan-19 12:59N 24°27' E 118°00'0 0.0
2018-Jan-19 12:26N 24°27' E 118°00'0 0.0
2018-Jan-19 11:59N 24°27' E 118°00'0 0.0
2018-Jan-19 11:29N 24°27' E 118°00'0 0.0
2018-Jan-19 10:59N 24°27' E 118°00'0 0.0
2018-Jan-19 10:29N 24°27' E 118°00'0 0.0
2018-Jan-19 09:59N 24°27' E 118°00'0 0.0
2018-Jan-19 09:29N 24°27' E 118°00'0 0.0
2018-Jan-19 08:59N 24°27' E 118°00'0 0.0
2018-Jan-19 08:29N 24°27' E 118°00'0 0.1
2018-Jan-19 07:56N 24°27' E 118°00'0 0.1
2018-Jan-19 07:26N 24°27' E 118°00'0 0.0
2018-Jan-19 06:59N 24°27' E 118°00'0 0.0
2018-Jan-19 06:29N 24°27' E 118°00'0 0.0
2018-Jan-19 05:53N 24°27' E 118°00'0 0.0
2018-Jan-19 05:26N 24°27' E 118°00'0 0.0
2018-Jan-19 04:59N 24°27' E 118°00'0 0.0
2018-Jan-19 04:29N 24°27' E 118°00'0 0.0
2018-Jan-19 03:59N 24°27' E 118°00'0 0.0
2018-Jan-19 03:29N 24°27' E 118°00'0 0.0
2018-Jan-19 02:53N 24°27' E 118°00'0 0.1
2018-Jan-19 02:29N 24°27' E 118°00'0 0.1
2018-Jan-19 01:59N 24°27' E 118°00'0 0.0
2018-Jan-19 01:29N 24°27' E 118°00'0 0.0
2018-Jan-19 00:59N 24°27' E 118°00'0 0.0
2018-Jan-19 00:29N 24°27' E 118°00'0 0.1
2018-Jan-19 00:00N 24°27' E 118°00'1 2.9
2018-Jan-18 23:30N 24°26' E 118°02'510.7
2018-Jan-18 23:00N 24°24' E 118°07'510.6
2018-Jan-18 22:31N 24°20' E 118°11'611.1
2018-Jan-18 22:01N 24°16' E 118°15'611.0
2018-Jan-18 21:30N 24°11' E 118°19'5 9.0
2018-Jan-18 21:00N 24°10' E 118°23'611.4
2018-Jan-18 20:31N 24°09' E 118°29'611.5
2018-Jan-18 20:00N 24°07' E 118°36'611.5
2018-Jan-18 19:30N 24°05' E 118°41'3811.4
2018-Jan-18 16:12N 23°57' E 119°22'212.0
2018-Jan-18 16:00N 23°57' E 119°24'1211.1
2018-Jan-18 14:55N 23°55' E 119°38'2 3.6
2018-Jan-18 14:29N 23°55' E 119°39'2 3.5
2018-Jan-18 14:00N 23°55' E 119°41'2 3.4
2018-Jan-18 13:22N 23°54' E 119°43'1 3.4
2018-Jan-18 13:00N 23°54' E 119°45'1 2.8
2018-Jan-18 12:29N 23°54' E 119°46'1 1.4
2018-Jan-18 12:00N 23°54' E 119°47'2 2.6
2018-Jan-18 11:11N 23°54' E 119°49'1 2.7
2018-Jan-18 10:51N 23°53' E 119°50'1 2.6
2018-Jan-18 10:30N 23°53' E 119°51'1 2.2
2018-Jan-18 10:00N 23°53' E 119°52'2 3.3
2018-Jan-18 09:25N 23°51' E 119°52'410.1
2018-Jan-18 09:00N 23°47' E 119°52'5 9.7
2018-Jan-18 08:31N 23°42' E 119°53'5 9.4
2018-Jan-18 08:00N 23°37' E 119°54'5 9.5
2018-Jan-18 07:31N 23°33' E 119°55'5 9.3
2018-Jan-18 07:00N 23°28' E 119°55'5 9.4
2018-Jan-18 06:30N 23°23' E 119°55'1410.0
2018-Jan-18 05:08N 23°10' E 119°56'310.5
2018-Jan-18 04:49N 23°06' E 119°56'410.7
2018-Jan-18 04:28N 23°03' E 119°55'511.1
2018-Jan-18 04:00N 22°57' E 119°55'611.2
2018-Jan-18 03:30N 22°52' E 119°55'611.4
2018-Jan-18 03:01N 22°46' E 119°57'510.8
2018-Jan-18 02:30N 22°42' E 120°00'611.7
2018-Jan-18 02:00N 22°36' E 120°02'510.4
2018-Jan-18 01:30N 22°33' E 120°06'611.8
2018-Jan-18 01:00N 22°33' E 120°12'7 6.8
2018-Jan-18 00:00N 22°33' E 120°20'0 0.0
2018-Jan-17 23:58N 22°33' E 120°20'  
2018-Jan-13 23:00N 41°42' E 141°24'93419.1 320 / 161027.0 5.4 -0.0 1.0
2018-Jan-11 22:00N 51°24' E 159°06'108843.5 050 / 10999.0 5.4 1.0 5.0
2018-Jan-10 21:00N 53°48' W 171°18'163 7.8 070 / 20977.0 5.4 3.0 3.0
2018-Jan-10 00:00N 54°06' W 175°54'   070 / 12977.0 5.4 5.0 5.0

Dump ship's entire track history